createdAt,value
2022-10-01T00:00:32.547Z,63.81
2022-10-01T00:05:35.122Z,63.88
2022-10-01T00:10:42.094Z,63.72
2022-10-01T00:15:44.656Z,63.83
2022-10-01T00:20:47.225Z,63.85
2022-10-01T00:25:52.164Z,64.22
2022-10-01T00:30:54.731Z,64.33
2022-10-01T00:35:57.431Z,64.75
2022-10-01T00:41:01.409Z,64.90
2022-10-01T00:46:08.693Z,65.13
2022-10-01T00:51:13.985Z,65.24
2022-10-01T00:56:18.877Z,65.41
2022-10-01T01:01:21.628Z,65.58
2022-10-01T01:06:24.545Z,65.83
2022-10-01T01:11:37.365Z,65.96
2022-10-01T01:16:46.831Z,66.11
2022-10-01T01:21:56.487Z,66.33
2022-10-01T01:27:26.595Z,66.71
2022-10-01T01:32:38.282Z,66.84
2022-10-01T01:37:46.591Z,66.92
2022-10-01T01:42:51.669Z,67.16
2022-10-01T01:47:58.800Z,67.42
2022-10-01T01:53:02.113Z,67.46
2022-10-01T01:58:04.759Z,67.65
2022-10-01T02:03:09.103Z,67.87
2022-10-01T02:08:29.377Z,67.92
2022-10-01T02:13:42.805Z,68.15
2022-10-01T02:18:54.507Z,68.18
2022-10-01T02:24:02.133Z,68.28
2022-10-01T02:29:08.256Z,68.52
2022-10-01T02:34:19.419Z,68.58
2022-10-01T02:39:24.400Z,68.73
2022-10-01T02:44:37.802Z,68.99
2022-10-01T02:49:42.300Z,68.92
2022-10-01T02:54:51.095Z,69.06
2022-10-01T02:59:57.655Z,69.10
2022-10-01T03:05:01.953Z,69.33
2022-10-01T03:10:05.781Z,69.40
2022-10-01T03:15:09.189Z,69.62
2022-10-01T03:20:13.839Z,69.60
2022-10-01T03:25:17.348Z,69.61
2022-10-01T03:30:19.929Z,69.82
2022-10-01T03:35:24.914Z,69.94
2022-10-01T03:40:27.461Z,70.13
2022-10-01T03:45:30.319Z,69.93
2022-10-01T03:50:34.260Z,69.94
2022-10-01T03:55:36.842Z,70.10
2022-10-01T04:00:39.448Z,70.25
2022-10-01T04:05:44.963Z,70.20
2022-10-01T04:10:48.229Z,70.39
2022-10-01T04:15:50.827Z,70.36
2022-10-01T04:20:54.957Z,70.45
2022-10-01T04:25:59.860Z,70.56
2022-10-01T04:31:20.266Z,70.73
2022-10-01T04:36:26.017Z,70.88
2022-10-01T04:41:30.386Z,71.00
2022-10-01T04:46:33.257Z,71.00
2022-10-01T04:52:05.982Z,71.00
2022-10-01T04:57:08.817Z,71.42
2022-10-01T05:02:11.405Z,71.19
2022-10-01T05:07:15.394Z,71.28
2022-10-01T05:12:22.369Z,71.34
2022-10-01T05:17:27.086Z,71.19
2022-10-01T05:22:32.205Z,71.20
2022-10-01T05:27:36.337Z,71.23
2022-10-01T05:32:39.396Z,71.08
2022-10-01T05:37:43.320Z,71.17
2022-10-01T05:42:46.953Z,71.25
2022-10-01T05:47:56.364Z,70.61
2022-10-01T05:53:01.333Z,70.42
2022-10-01T05:58:05.433Z,69.89
2022-10-01T06:03:08.523Z,69.72
2022-10-01T06:08:12.587Z,69.74
2022-10-01T06:13:17.597Z,69.50
2022-10-01T06:18:20.168Z,69.31
2022-10-01T06:23:24.336Z,69.25
2022-10-01T06:28:27.340Z,69.08
2022-10-01T06:33:30.527Z,68.85
2022-10-01T06:38:34.422Z,68.80
2022-10-01T06:43:36.949Z,68.67
2022-10-01T06:48:39.632Z,68.56
2022-10-01T06:53:43.598Z,68.43
2022-10-01T06:58:46.191Z,68.50
2022-10-01T07:03:49.099Z,68.17
2022-10-01T07:08:53.181Z,67.57
2022-10-01T07:13:57.700Z,66.37
2022-10-01T07:19:00.578Z,65.34
2022-10-01T07:24:04.854Z,65.21
2022-10-01T07:29:08.824Z,64.35
2022-10-01T07:34:11.417Z,63.21
2022-10-01T07:39:15.417Z,62.90
2022-10-01T07:44:18.513Z,62.97
2022-10-01T07:49:21.395Z,63.03
2022-10-01T07:54:26.032Z,62.12
2022-10-01T07:59:28.902Z,62.52
2022-10-01T08:04:48.998Z,62.56
2022-10-01T08:09:52.983Z,62.77
2022-10-01T08:14:55.974Z,63.03
2022-10-01T08:19:58.693Z,62.95
2022-10-01T08:25:02.858Z,63.11
2022-10-01T08:30:06.802Z,63.08
2022-10-01T08:35:09.797Z,63.16
2022-10-01T08:40:13.792Z,63.05
2022-10-01T08:45:22.893Z,63.16
2022-10-01T08:50:37.293Z,63.14
2022-10-01T08:55:42.708Z,63.12
2022-10-01T09:00:49.058Z,61.50
2022-10-01T09:06:11.141Z,56.02
2022-10-01T09:11:25.478Z,56.00
2022-10-01T09:16:35.475Z,56.29
2022-10-01T09:21:50.154Z,58.13
2022-10-01T09:26:55.183Z,58.47
2022-10-01T09:31:59.295Z,58.80
2022-10-01T09:37:14.591Z,58.91
2022-10-01T09:42:19.291Z,59.09
2022-10-01T09:47:25.642Z,59.33
2022-10-01T09:52:40.138Z,59.70
2022-10-01T09:57:49.423Z,59.90
2022-10-01T10:02:54.147Z,60.15
2022-10-01T10:08:01.810Z,60.35
2022-10-01T10:13:18.703Z,60.18
2022-10-01T10:18:29.876Z,60.30
2022-10-01T10:23:34.315Z,60.32
2022-10-01T10:28:44.611Z,60.36
2022-10-01T10:33:54.547Z,60.44
2022-10-01T10:38:58.826Z,60.52
2022-10-01T10:44:06.414Z,61.16
2022-10-01T10:49:18.407Z,61.34
2022-10-01T10:54:24.484Z,61.27
2022-10-01T10:59:30.998Z,61.68
2022-10-01T11:04:42.279Z,62.04
2022-10-01T11:10:08.906Z,62.15
2022-10-01T11:15:26.137Z,62.15
2022-10-01T11:20:39.267Z,62.29
2022-10-01T11:25:53.975Z,62.11
2022-10-01T11:31:04.105Z,62.19
2022-10-01T11:36:16.423Z,61.93
2022-10-01T11:41:31.627Z,61.73
2022-10-01T11:46:45.612Z,61.78
2022-10-01T11:52:05.858Z,61.89
2022-10-01T11:57:33.180Z,61.53
2022-10-01T12:02:47.100Z,61.99
2022-10-01T12:07:55.090Z,61.81
2022-10-01T12:13:01.483Z,61.80
2022-10-01T12:18:15.581Z,61.84
2022-10-01T12:23:22.318Z,61.65
2022-10-01T12:28:33.083Z,61.82
2022-10-01T12:33:59.035Z,61.58
2022-10-01T12:39:18.270Z,61.51
2022-10-01T12:44:37.097Z,61.70
2022-10-01T12:49:49.213Z,61.47
2022-10-01T12:55:07.029Z,61.54
2022-10-01T13:00:18.924Z,61.35
2022-10-01T13:05:32.706Z,61.40
2022-10-01T13:10:48.738Z,61.52
2022-10-01T13:15:59.742Z,61.58
2022-10-01T13:21:10.968Z,61.83
2022-10-01T13:26:19.471Z,61.98
2022-10-01T13:31:34.991Z,61.75
2022-10-01T13:36:40.010Z,61.65
2022-10-01T13:41:43.395Z,61.47
2022-10-01T13:46:52.717Z,61.75
2022-10-01T13:51:57.601Z,61.77
2022-10-01T13:57:09.464Z,61.74
2022-10-01T14:02:31.824Z,61.80
2022-10-01T14:07:42.961Z,61.69
2022-10-01T14:13:06.542Z,61.77
2022-10-01T14:18:13.285Z,61.74
2022-10-01T14:23:23.299Z,61.92
2022-10-01T14:28:39.300Z,61.79
2022-10-01T14:33:54.860Z,61.92
2022-10-01T14:39:12.865Z,62.01
2022-10-01T14:44:24.738Z,62.17
2022-10-01T14:49:29.410Z,62.13
2022-10-01T14:54:43.447Z,62.08
2022-10-01T14:59:49.093Z,62.28
2022-10-01T15:04:54.516Z,62.43
2022-10-01T15:10:08.461Z,62.72
2022-10-01T15:15:20.280Z,63.06
2022-10-01T15:20:23.349Z,63.69
2022-10-01T15:25:30.040Z,64.23
2022-10-01T15:30:36.954Z,64.46
2022-10-01T15:35:39.690Z,64.49
2022-10-01T15:40:45.071Z,64.76
2022-10-01T15:46:11.873Z,64.87
2022-10-01T15:51:22.447Z,65.09
2022-10-01T15:56:26.419Z,65.32
2022-10-01T16:01:38.885Z,65.35
2022-10-01T16:06:44.933Z,65.58
2022-10-01T16:11:55.011Z,60.92
2022-10-01T16:17:37.261Z,63.13
2022-10-01T16:22:40.049Z,60.35
2022-10-01T16:27:48.422Z,61.36
2022-10-01T16:32:51.320Z,62.29
2022-10-01T16:37:56.288Z,62.86
2022-10-01T16:43:01.593Z,63.13
2022-10-01T16:48:14.026Z,63.24
2022-10-01T16:53:18.257Z,63.71
2022-10-01T16:58:22.318Z,64.21
2022-10-01T17:03:25.091Z,64.54
2022-10-01T17:08:27.697Z,64.69
2022-10-01T17:13:33.933Z,64.88
2022-10-01T17:18:36.530Z,65.08
2022-10-01T17:23:39.198Z,65.43
2022-10-01T17:28:43.199Z,65.73
2022-10-01T17:33:46.309Z,65.67
2022-10-01T17:38:48.881Z,66.04
2022-10-01T17:43:52.837Z,66.00
2022-10-01T17:48:55.429Z,66.14
2022-10-01T17:53:59.668Z,66.28
2022-10-01T17:59:04.086Z,66.11
2022-10-01T18:04:06.798Z,66.33
2022-10-01T18:09:09.386Z,66.68
2022-10-01T18:14:13.446Z,66.73
2022-10-01T18:19:53.050Z,66.76
2022-10-01T18:24:38.809Z,68.40
2022-10-01T18:29:42.986Z,69.39
2022-10-01T18:34:51.380Z,69.76
2022-10-01T18:40:00.018Z,69.61
2022-10-01T18:45:13.939Z,69.35
2022-10-01T18:50:24.554Z,69.13
2022-10-01T18:55:45.935Z,68.98
2022-10-01T19:01:01.627Z,68.89
2022-10-01T19:06:17.861Z,68.86
2022-10-01T19:11:32.320Z,68.71
2022-10-01T19:16:47.595Z,68.62
2022-10-01T19:22:00.230Z,68.71
2022-10-01T19:27:13.462Z,68.61
2022-10-01T19:32:22.368Z,68.70
2022-10-01T19:37:32.696Z,68.56
2022-10-01T19:42:39.563Z,68.60
2022-10-01T19:47:50.683Z,68.42
2022-10-01T19:52:57.253Z,68.46
2022-10-01T19:58:00.434Z,68.37
2022-10-01T20:03:11.958Z,68.40
2022-10-01T20:08:24.904Z,68.48
2022-10-01T20:13:41.141Z,68.40
2022-10-01T20:18:54.485Z,68.41
2022-10-01T20:24:04.632Z,68.70
2022-10-01T20:29:19.544Z,68.66
2022-10-01T20:34:29.538Z,68.64
2022-10-01T20:39:35.120Z,68.52
2022-10-01T20:44:39.276Z,68.76
2022-10-01T20:49:48.227Z,68.67
2022-10-01T20:54:53.576Z,68.55
2022-10-01T21:00:03.191Z,68.80
2022-10-01T21:05:12.662Z,68.65
2022-10-01T21:10:26.873Z,68.97
2022-10-01T21:15:42.496Z,68.77
2022-10-01T21:21:04.741Z,68.76
2022-10-01T21:26:16.272Z,68.57
2022-10-01T21:31:32.838Z,68.23
2022-10-01T21:36:39.814Z,68.28
2022-10-01T21:41:56.152Z,67.85
2022-10-01T21:47:07.513Z,67.76
2022-10-01T21:52:24.513Z,67.42
2022-10-01T21:57:43.838Z,67.12
2022-10-01T22:03:00.982Z,67.00
2022-10-01T22:08:18.201Z,67.18
2022-10-01T22:13:24.464Z,66.79
2022-10-01T22:18:35.604Z,66.51
2022-10-01T22:23:45.878Z,66.36
2022-10-01T22:28:52.125Z,66.17
2022-10-01T22:34:01.260Z,66.34
2022-10-01T22:39:12.012Z,66.19
2022-10-01T22:44:16.203Z,65.98
2022-10-01T22:49:32.149Z,65.82
2022-10-01T22:54:49.547Z,65.88
2022-10-01T23:00:02.623Z,65.66
2022-10-01T23:05:27.848Z,65.79
2022-10-01T23:10:40.586Z,65.46
2022-10-01T23:15:53.533Z,65.29
2022-10-01T23:21:10.813Z,65.25
2022-10-01T23:26:30.801Z,65.26
2022-10-01T23:31:40.369Z,65.21
2022-10-01T23:36:49.515Z,65.13
2022-10-01T23:41:59.322Z,65.24
2022-10-01T23:47:05.782Z,65.03
2022-10-01T23:52:17.654Z,64.95
2022-10-01T23:57:27.055Z,64.95
